Saint Bonnet de Bellac- Haute Vienne - France
Donnes mto: samedi / dimanche, 28/10/2012
Date Horaire Temp. E. Hum. E. P.atmo. Pluie Vent Direction Direction Ensoleilleme Solaire P. de rose Temp au vent Rafales
27/10/2012 19:00 6,1 C 93 % 999,1 hPa 0,0 mm 7,9 km/h (2 Bft) N-NE 22 0 min 0 W/m 5,1 C 4,5 C 15,8 km/h (3 Bft)
27/10/2012 19:10 5,9 C 93 % 999,3 hPa 0,0 mm 10,1 km/h (2 Bft) NE 45 0 min 0 W/m 4,9 C 3,7 C 18,4 km/h (3 Bft)
27/10/2012 19:20 5,8 C 93 % 999,3 hPa 0,0 mm 9,4 km/h (2 Bft) N 360 0 min 0 W/m 4,8 C 3,7 C 10,1 km/h (2 Bft)
27/10/2012 19:30 5,7 C 93 % 999,4 hPa 0,0 mm 10,4 km/h (2 Bft) N-NO 337 0 min 0 W/m 4,7 C 3,4 C 15,5 km/h (3 Bft)
27/10/2012 19:40 5,6 C 93 % 999,4 hPa 0,0 mm 9,0 km/h (2 Bft) N-NO 337 0 min 0 W/m 4,6 C 3,6 C 11,2 km/h (2 Bft)
27/10/2012 19:50 5,6 C 93 % 999,6 hPa 0,0 mm 11,9 km/h (2 Bft) N 360 0 min 0 W/m 4,6 C 3,0 C 23,0 km/h (4 Bft)
27/10/2012 20:00 5,5 C 93 % 999,7 hPa 0,0 mm 15,1 km/h (3 Bft) NE 45 0 min 0 W/m 4,5 C 2,4 C 15,5 km/h (3 Bft)
27/10/2012 20:10 5,4 C 93 % 999,7 hPa 0,0 mm 15,1 km/h (3 Bft) NE 45 0 min 0 W/m 4,4 C 2,2 C 28,1 km/h (5 Bft)
27/10/2012 20:20 5,3 C 93 % 999,8 hPa 0,0 mm 7,6 km/h (2 Bft) N 360 0 min 0 W/m 4,3 C 3,6 C 12,2 km/h (2 Bft)
27/10/2012 20:30 5,2 C 93 % 1000,0 hPa 0,0 mm 6,1 km/h (2 Bft) E-NE 67 0 min 0 W/m 4,2 C 3,9 C 6,1 km/h (2 Bft)
27/10/2012 20:40 5,1 C 92 % 1000,1 hPa 0,0 mm 9,0 km/h (2 Bft) N-NO 337 0 min 0 W/m 3,9 C 3,0 C 23,4 km/h (4 Bft)
27/10/2012 20:50 5,0 C 92 % 1000,2 hPa 0,0 mm 0,4 km/h (0 Bft) N-NO 337 0 min 0 W/m 3,8 C 5,0 C 4,3 km/h (1 Bft)
27/10/2012 21:00 4,9 C 92 % 1000,3 hPa 0,0 mm 6,5 km/h (2 Bft) NE 45 0 min 0 W/m 3,7 C 3,4 C 12,2 km/h (2 Bft)
27/10/2012 21:10 4,8 C 92 % 1000,5 hPa 0,0 mm 16,2 km/h (3 Bft) N-NE 22 0 min 0 W/m 3,6 C 1,3 C 25,9 km/h (4 Bft)
27/10/2012 21:20 4,6 C 91 % 1000,7 hPa 0,0 mm 4,3 km/h (1 Bft) NE 45 0 min 0 W/m 3,3 C 4,6 C 11,2 km/h (2 Bft)
27/10/2012 21:30 4,4 C 91 % 1000,9 hPa 0,0 mm 7,6 km/h (2 Bft) N-NE 22 0 min 0 W/m 3,1 C 2,5 C 13,7 km/h (3 Bft)
27/10/2012 21:40 4,2 C 91 % 1001,0 hPa 0,0 mm 15,5 km/h (3 Bft) N 360 0 min 0 W/m 2,9 C 0,7 C 32,0 km/h (5 Bft)
27/10/2012 21:50 4,1 C 90 % 1001,1 hPa 0,0 mm 7,6 km/h (2 Bft) N 360 0 min 0 W/m 2,6 C 2,2 C 14,4 km/h (3 Bft)
27/10/2012 22:00 3,9 C 90 % 1001,3 hPa 0,0 mm 3,6 km/h (1 Bft) N-NO 337 0 min 0 W/m 2,4 C 3,9 C 3,6 km/h (1 Bft)
27/10/2012 22:10 3,9 C 90 % 1001,4 hPa 0,0 mm 3,2 km/h (1 Bft) N-NE 22 0 min 0 W/m 2,4 C 3,9 C 9,0 km/h (2 Bft)
27/10/2012 22:20 3,8 C 90 % 1001,6 hPa 0,0 mm 8,3 km/h (2 Bft) NO 315 0 min 0 W/m 2,3 C 1,6 C 8,3 km/h (2 Bft)
27/10/2012 22:30 3,8 C 89 % 1001,8 hPa 0,0 mm 5,4 km/h (2 Bft) N 360 0 min 0 W/m 2,2 C 2,6 C 12,2 km/h (2 Bft)
27/10/2012 22:40 3,5 C 88 % 1002,0 hPa 0,0 mm 5,4 km/h (2 Bft) E 90 0 min 0 W/m 1,7 C 2,2 C 9,4 km/h (2 Bft)
27/10/2012 22:50 3,2 C 87 % 1002,2 hPa 0,0 mm 10,1 km/h (2 Bft) O-NO 292 0 min 0 W/m 1,2 C 0,5 C 11,5 km/h (2 Bft)
27/10/2012 23:00 2,8 C 86 % 1002,3 hPa 0,0 mm 8,6 km/h (2 Bft) N-NO 337 0 min 0 W/m 0,7 C 0,4 C 17,6 km/h (3 Bft)
27/10/2012 23:10 2,4 C 85 % 1002,5 hPa 0,0 mm 3,2 km/h (1 Bft) N 360 0 min 0 W/m 0,1 C 2,4 C 12,6 km/h (3 Bft)
27/10/2012 23:20 2,1 C 86 % 1002,7 hPa 0,0 mm 1,4 km/h (1 Bft) NO 315 0 min 0 W/m 0,0 C 2,1 C 3,6 km/h (1 Bft)
27/10/2012 23:30 1,8 C 86 % 1002,9 hPa 0,0 mm 7,9 km/h (2 Bft) E-NE 67 0 min 0 W/m -0,3 C -0,6 C 7,9 km/h (2 Bft)
27/10/2012 23:40 1,5 C 86 % 1003,2 hPa 0,0 mm 4,3 km/h (1 Bft) NE 45 0 min 0 W/m -0,6 C 1,5 C 6,5 km/h (2 Bft)
27/10/2012 23:50 1,3 C 85 % 1003,4 hPa 0,0 mm 9,0 km/h (2 Bft) E-NE 67 0 min 0 W/m -0,9 C -1,5 C 13,7 km/h (3 Bft)
28/10/2012 00:00 1,1 C 85 % 1003,7 hPa 0,0 mm 5,0 km/h (1 Bft) N-NO 337 0 min 0 W/m -1,1 C -0,3 C 6,1 km/h (2 Bft)
28/10/2012 00:10 0,9 C 85 % 1003,9 hPa 0,0 mm 11,5 km/h (2 Bft) E 90 0 min 0 W/m -1,3 C -2,6 C 19,4 km/h (3 Bft)
28/10/2012 00:20 1,3 C 85 % 1004,0 hPa 0,0 mm 10,1 km/h (2 Bft) N-NE 22 0 min 0 W/m -0,9 C -1,8 C 11,2 km/h (2 Bft)
28/10/2012 00:30 2,0 C 82 % 1004,4 hPa 0,0 mm 4,3 km/h (1 Bft) O-SO 247 0 min 0 W/m -0,7 C 2,0 C 18,7 km/h (3 Bft)
28/10/2012 00:40 2,8 C 79 % 1004,6 hPa 0,0 mm 4,7 km/h (1 Bft) NE 45 0 min 0 W/m -0,5 C 1,7 C 11,5 km/h (2 Bft)
28/10/2012 00:50 3,4 C 77 % 1004,8 hPa 0,0 mm 4,3 km/h (1 Bft) NO 315 0 min 0 W/m -0,2 C 3,4 C 8,3 km/h (2 Bft)
28/10/2012 01:00 3,9 C 74 % 1005,0 hPa 0,0 mm 10,1 km/h (2 Bft) N 360 0 min 0 W/m -0,3 C 1,3 C 15,8 km/h (3 Bft)
28/10/2012 01:10 4,4 C 71 % 1005,1 hPa 0,0 mm 9,4 km/h (2 Bft) N-NO 337 0 min 0 W/m -0,4 C 2,1 C 13,3 km/h (3 Bft)
28/10/2012 01:20 4,8 C 69 % 1005,3 hPa 0,0 mm 6,1 km/h (2 Bft) N 360 0 min 0 W/m -0,4 C 3,5 C 14,4 km/h (3 Bft)
28/10/2012 01:30 5,1 C 68 % 1005,5 hPa 0,0 mm 3,6 km/h (1 Bft) N-NO 337 0 min 0 W/m -0,3 C 5,1 C 3,6 km/h (1 Bft)
28/10/2012 01:40 5,4 C 65 % 1005,7 hPa 0,0 mm 9,4 km/h (2 Bft) N-NO 337 0 min 0 W/m -0,6 C 3,3 C 11,9 km/h (2 Bft)
28/10/2012 01:50 5,7 C 65 % 1005,9 hPa 0,0 mm 7,9 km/h (2 Bft) N 360 0 min 0 W/m -0,4 C 4,0 C 12,2 km/h (2 Bft)
28/10/2012 02:00 6,1 C 64 % 1006,1 hPa 0,0 mm 7,6 km/h (2 Bft) N 360 0 min 0 W/m -0,2 C 4,5 C 12,6 km/h (3 Bft)
28/10/2012 02:10 6,3 C 61 % 1006,4 hPa 0,0 mm 3,2 km/h (1 Bft) N 360 0 min 0 W/m -0,7 C 6,3 C 3,2 km/h (1 Bft)
28/10/2012 02:20 6,8 C 60 % 1006,5 hPa 0,0 mm 8,3 km/h (2 Bft) N 360 0 min 0 W/m -0,4 C 5,2 C 14,4 km/h (3 Bft)
28/10/2012 02:30 7,1 C 59 % 1006,6 hPa 0,0 mm 13,0 km/h (3 Bft) N 360 0 min 0 W/m -0,4 C 4,6 C 21,2 km/h (4 Bft)
28/10/2012 02:40 7,1 C 58 % 1006,7 hPa 0,0 mm 6,5 km/h (2 Bft) N 360 0 min 0 W/m -0,6 C 6,0 C 12,2 km/h (2 Bft)
28/10/2012 02:50 7,4 C 59 % 1006,9 hPa 0,0 mm 5,0 km/h (1 Bft) N 360 0 min 0 W/m -0,1 C 6,8 C 12,2 km/h (2 Bft)
28/10/2012 03:00 7,9 C 57 % 1006,9 hPa 0,0 mm 11,9 km/h (2 Bft) NE 45 0 min 0 W/m -0,1 C 5,8 C 19,8 km/h (3 Bft)
28/10/2012 03:10 8,2 C 57 % 1007,1 hPa 0,0 mm 13,3 km/h (3 Bft) N-NO 337 0 min 0 W/m 0,2 C 5,9 C 18,7 km/h (3 Bft)
28/10/2012 03:20 8,3 C 57 % 1007,3 hPa 0,0 mm 2,2 km/h (1 Bft) N-NE 22 0 min 0 W/m 0,3 C 8,3 C 6,5 km/h (2 Bft)
28/10/2012 03:30 8,5 C 55 % 1007,4 hPa 0,0 mm 7,9 km/h (2 Bft) E-NE 67 0 min 0 W/m -0,0 C 7,3 C 19,4 km/h (3 Bft)
28/10/2012 03:40 8,6 C 54 % 1007,6 hPa 0,0 mm 7,6 km/h (2 Bft) NO 315 0 min 0 W/m -0,2 C 7,5 C 7,9 km/h (2 Bft)
28/10/2012 03:50 8,8 C 54 % 1007,7 hPa 0,0 mm 8,6 km/h (2 Bft) N 360 0 min 0 W/m 0,0 C 7,5 C 14,4 km/h (3 Bft)
28/10/2012 04:00 8,9 C 57 % 1007,8 hPa 0,0 mm 4,3 km/h (1 Bft) N-NE 22 0 min 0 W/m 0,9 C 8,9 C 9,4 km/h (2 Bft)
28/10/2012 04:10 9,0 C 54 % 1008,0 hPa 0,0 mm 11,5 km/h (2 Bft) E-NE 67 0 min 0 W/m 0,2 C 7,2 C 22,0 km/h (4 Bft)
28/10/2012 04:20 8,6 C 55 % 1008,1 hPa 0,0 mm 9,0 km/h (2 Bft) N-NE 22 0 min 0 W/m 0,1 C 7,2 C 14,0 km/h (3 Bft)
28/10/2012 04:30 8,9 C 56 % 1008,0 hPa 0,0 mm 14,0 km/h (3 Bft) N-NO 337 0 min 0 W/m 0,6 C 6,7 C 23,8 km/h (4 Bft)
28/10/2012 04:40 9,0 C 57 % 1008,2 hPa 0,0 mm 6,1 km/h (2 Bft) E-NE 67 0 min 0 W/m 0,9 C 8,3 C 11,5 km/h (2 Bft)
28/10/2012 04:50 8,8 C 55 % 1008,2 hPa 0,0 mm 16,2 km/h (3 Bft) N-NO 337 0 min 0 W/m 0,3 C 6,3 C 24,8 km/h (4 Bft)
28/10/2012 05:00 8,3 C 57 % 1008,3 hPa 0,0 mm 11,5 km/h (2 Bft) NE 45 0 min 0 W/m 0,3 C 6,3 C 18,0 km/h (3 Bft)
28/10/2012 05:10 7,7 C 59 % 1008,2 hPa 0,0 mm 10,4 km/h (2 Bft) NO 315 0 min 0 W/m 0,2 C 5,8 C 14,0 km/h (3 Bft)
28/10/2012 05:20 7,5 C 61 % 1008,2 hPa 0,0 mm 4,7 km/h (1 Bft) NO 315 0 min 0 W/m 0,5 C 7,0 C 8,6 km/h (2 Bft)
28/10/2012 05:30 7,7 C 61 % 1008,4 hPa 0,0 mm 5,8 km/h (2 Bft) N-NO 337 0 min 0 W/m 0,7 C 6,9 C 12,2 km/h (2 Bft)
28/10/2012 05:40 7,9 C 62 % 1008,3 hPa 0,0 mm 15,5 km/h (3 Bft) N-NE 22 0 min 0 W/m 1,1 C 5,3 C 28,1 km/h (5 Bft)
28/10/2012 05:50 7,8 C 61 % 1008,5 hPa 0,0 mm 6,5 km/h (2 Bft) N-NE 22 0 min 0 W/m 0,8 C 6,8 C 11,9 km/h (2 Bft)
28/10/2012 06:00 7,9 C 61 % 1008,8 hPa 0,0 mm 11,2 km/h (2 Bft) N-NE 22 0 min 0 W/m 0,9 C 5,9 C 12,6 km/h (3 Bft)
28/10/2012 06:10 7,9 C 61 % 1008,7 hPa 0,0 mm 6,1 km/h (2 Bft) N 360 0 min 0 W/m 0,9 C 7,0 C 10,1 km/h (2 Bft)
28/10/2012 06:20 7,8 C 60 % 1008,6 hPa 0,0 mm 10,4 km/h (2 Bft) N 360 0 min 0 W/m 0,5 C 5,9 C 11,5 km/h (2 Bft)
28/10/2012 06:30 8,0 C 61 % 1008,7 hPa 0,0 mm 6,5 km/h (2 Bft) N 360 0 min 0 W/m 0,9 C 7,0 C 11,2 km/h (2 Bft)
28/10/2012 06:40 8,3 C 62 % 1008,6 hPa 0,0 mm 4,3 km/h (1 Bft) N-NE 22 0 min 0 W/m 1,5 C 8,3 C 4,3 km/h (1 Bft)
28/10/2012 06:50 8,4 C 63 % 1009,0 hPa 0,0 mm 7,2 km/h (2 Bft) N 360 0 min 0 W/m 1,8 C 7,3 C 14,0 km/h (3 Bft)
28/10/2012 07:00 8,5 C 63 % 1009,1 hPa 0,0 mm 6,5 km/h (2 Bft) N-NO 337 0 min 0 W/m 1,9 C 7,6 C 6,8 km/h (2 Bft)
28/10/2012 07:10 8,5 C 63 % 1009,4 hPa 0,0 mm 9,7 km/h (2 Bft) NE 45 0 min 0 W/m 1,9 C 6,9 C 15,1 km/h (3 Bft)
28/10/2012 07:20 8,0 C 64 % 1009,4 hPa 0,0 mm 4,7 km/h (1 Bft) NE 45 0 min 0 W/m 1,6 C 7,6 C 6,1 km/h (2 Bft)
28/10/2012 07:30 7,8 C 63 % 1009,4 hPa 0,0 mm 2,5 km/h (1 Bft) N-NE 22 0 min 0 W/m 1,2 C 7,8 C 3,2 km/h (1 Bft)
28/10/2012 07:40 7,8 C 64 % 1009,8 hPa 0,0 mm 6,5 km/h (2 Bft) N 360 0 min 0 W/m 1,4 C 6,8 C 14,0 km/h (3 Bft)
28/10/2012 07:50 7,8 C 65 % 1009,8 hPa 0,0 mm 2,9 km/h (1 Bft) N 360 0 min 0 W/m 1,6 C 7,8 C 6,8 km/h (2 Bft)
28/10/2012 08:00 7,8 C 65 % 1010,0 hPa 0,0 mm 12,2 km/h (2 Bft) N-NE 22 0 min 0 W/m 1,6 C 5,6 C 12,2 km/h (2 Bft)
28/10/2012 08:10 7,8 C 64 % 1010,2 hPa 0,0 mm 6,1 km/h (2 Bft) N-NO 337 0 min 0 W/m 1,4 C 6,9 C 6,5 km/h (2 Bft)
28/10/2012 08:20 7,7 C 63 % 1010,2 hPa 0,0 mm 11,5 km/h (2 Bft) N 360 0 min 0 W/m 1,1 C 5,6 C 25,6 km/h (4 Bft)
28/10/2012 08:30 7,5 C 64 % 1010,5 hPa 0,0 mm 7,6 km/h (2 Bft) E-NE 67 0 min 0 W/m 1,1 C 6,2 C 15,5 km/h (3 Bft)
28/10/2012 08:40 7,3 C 63 % 1010,7 hPa 0,0 mm 3,2 km/h (1 Bft) N-NO 337 0 min 0 W/m 0,7 C 7,3 C 9,4 km/h (2 Bft)
28/10/2012 08:50 7,1 C 64 % 1010,8 hPa 0,0 mm 5,8 km/h (2 Bft) N 360 0 min 0 W/m 0,8 C 6,2 C 23,0 km/h (4 Bft)
28/10/2012 09:00 6,8 C 64 % 1011,0 hPa 0,0 mm 10,4 km/h (2 Bft) NE 45 0 min 0 W/m 0,5 C 4,7 C 18,7 km/h (3 Bft)
28/10/2012 09:10 6,6 C 64 % 1011,1 hPa 0,0 mm 3,6 km/h (1 Bft) N-NE 22 0 min 0 W/m 0,3 C 6,6 C 8,3 km/h (2 Bft)
28/10/2012 09:20 6,4 C 65 % 1011,2 hPa 0,0 mm 6,5 km/h (2 Bft) NO 315 0 min 0 W/m 0,3 C 5,2 C 12,6 km/h (3 Bft)
28/10/2012 09:30 6,2 C 66 % 1011,2 hPa 0,0 mm 3,6 km/h (1 Bft) N 360 0 min 0 W/m 0,3 C 6,2 C 3,6 km/h (1 Bft)
28/10/2012 09:40 6,1 C 67 % 1011,3 hPa 0,0 mm 4,7 km/h (1 Bft) NO 315 0 min 0 W/m 0,4 C 5,4 C 9,0 km/h (2 Bft)
28/10/2012 09:50 6,0 C 68 % 1011,4 hPa 0,0 mm 5,4 km/h (2 Bft) NO 315 0 min 0 W/m 0,6 C 5,1 C 8,6 km/h (2 Bft)
28/10/2012 10:00 6,0 C 69 % 1011,4 hPa 0,0 mm 2,5 km/h (1 Bft) N-NO 337 0 min 0 W/m 0,8 C 6,0 C 4,3 km/h (1 Bft)
28/10/2012 10:10 6,0 C 70 % 1011,6 hPa 0,0 mm 7,9 km/h (2 Bft) O-NO 292 0 min 0 W/m 1,0 C 4,3 C 15,8 km/h (3 Bft)
28/10/2012 10:20 5,9 C 70 % 1011,6 hPa 0,0 mm 9,4 km/h (2 Bft) NO 315 0 min 0 W/m 0,9 C 3,9 C 9,4 km/h (2 Bft)
28/10/2012 10:30 5,8 C 71 % 1011,7 hPa 0,0 mm 11,2 km/h (2 Bft) NO 315 0 min 0 W/m 1,0 C 3,4 C 11,2 km/h (2 Bft)
28/10/2012 10:40 5,5 C 71 % 1011,8 hPa 0,0 mm 6,1 km/h (2 Bft) N-NO 337 0 min 0 W/m 0,7 C 4,3 C 9,0 km/h (2 Bft)
28/10/2012 10:50 5,4 C 72 % 1011,8 hPa 0,0 mm 8,3 km/h (2 Bft) N-NE 22 0 min 0 W/m 0,8 C 3,5 C 15,8 km/h (3 Bft)
28/10/2012 11:00 5,3 C 73 % 1011,9 hPa 0,0 mm 6,5 km/h (2 Bft) NO 315 0 min 0 W/m 0,9 C 3,9 C 10,8 km/h (2 Bft)
28/10/2012 11:10 5,3 C 73 % 1011,9 hPa 0,0 mm 5,0 km/h (1 Bft) N-NO 337 0 min 0 W/m 0,9 C 4,4 C 16,2 km/h (3 Bft)
28/10/2012 11:20 5,3 C 74 % 1012,1 hPa 0,0 mm 10,4 km/h (2 Bft) N-NO 337 0 min 0 W/m 1,0 C 2,9 C 10,4 km/h (2 Bft)
28/10/2012 11:30 5,4 C 74 % 1012,3 hPa 0,0 mm 5,0 km/h (1 Bft) N-NO 337 0 min 0 W/m 1,1 C 4,5 C 10,1 km/h (2 Bft)
28/10/2012 11:40 5,3 C 76 % 1012,3 hPa 0,1 mm 10,4 km/h (2 Bft) NE 45 0 min 0 W/m 1,4 C 2,9 C 24,8 km/h (4 Bft)
28/10/2012 11:50 5,1 C 78 % 1012,2 hPa 0,1 mm 5,0 km/h (1 Bft) N-NO 337 0 min 0 W/m 1,6 C 4,2 C 12,2 km/h (2 Bft)
28/10/2012 12:00 4,8 C 79 % 1012,5 hPa 0,1 mm 2,9 km/h (1 Bft) N 360 0 min 0 W/m 1,5 C 4,8 C 4,7 km/h (1 Bft)
28/10/2012 12:10 4,4 C 81 % 1012,3 hPa 0,0 mm 2,2 km/h (1 Bft) NE 45 0 min 0 W/m 1,4 C 4,4 C 3,2 km/h (1 Bft)
28/10/2012 12:20 4,3 C 82 % 1012,4 hPa 0,0 mm 2,5 km/h (1 Bft) NE 45 0 min 0 W/m 1,5 C 4,3 C 4,3 km/h (1 Bft)
28/10/2012 12:30 4,2 C 83 % 1012,4 hPa 0,0 mm 1,1 km/h (1 Bft) N-NE 22 0 min 0 W/m 1,6 C 4,2 C 2,9 km/h (1 Bft)
28/10/2012 12:40 4,1 C 84 % 1012,4 hPa 0,0 mm 3,2 km/h (1 Bft) N 360 0 min 0 W/m 1,6 C 4,1 C 4,0 km/h (1 Bft)
28/10/2012 12:50 4,1 C 84 % 1012,6 hPa 0,0 mm 1,1 km/h (1 Bft) NE 45 0 min 0 W/m 1,6 C 4,1 C 1,1 km/h (1 Bft)
28/10/2012 13:00 4,1 C 84 % 1012,7 hPa 0,0 mm 2,5 km/h (1 Bft) N-NO 337 0 min 0 W/m 1,6 C 4,1 C 6,8 km/h (2 Bft)
28/10/2012 13:10 4,1 C 85 % 1012,7 hPa 0,0 mm 0,0 km/h (0 Bft) N-NO 337 0 min 0 W/m 1,8 C 4,1 C 0,0 km/h (0 Bft)
28/10/2012 13:20 4,1 C 85 % 1012,8 hPa 0,0 mm 2,2 km/h (1 Bft) N-NO 337 0 min 0 W/m 1,8 C 4,1 C 13,0 km/h (3 Bft)
28/10/2012 13:30 4,1 C 86 % 1012,8 hPa 0,0 mm 0,4 km/h (0 Bft) NO 315 0 min 0 W/m 2,0 C 4,1 C 0,4 km/h (0 Bft)
28/10/2012 13:40 4,1 C 86 % 1012,9 hPa 0,1 mm 11,9 km/h (2 Bft) N-NO 337 0 min 0 W/m 2,0 C 1,2 C 24,1 km/h (4 Bft)
28/10/2012 13:50 4,2 C 86 % 1013,0 hPa 0,0 mm 4,7 km/h (1 Bft) N-NO 337 0 min 0 W/m 2,1 C 3,3 C 8,3 km/h (2 Bft)
28/10/2012 14:00 4,2 C 85 % 1013,0 hPa 0,0 mm 15,1 km/h (3 Bft) N 360 0 min 0 W/m 1,9 C 0,7 C 15,8 km/h (3 Bft)
28/10/2012 14:10 4,1 C 85 % 1013,2 hPa 0,0 mm 4,0 km/h (1 Bft) NE 45 0 min 0 W/m 1,8 C 4,1 C 10,1 km/h (2 Bft)
28/10/2012 14:20 3,9 C 84 % 1013,4 hPa 0,0 mm 6,5 km/h (2 Bft) S 180 0 min 0 W/m 1,4 C 2,3 C 19,1 km/h (3 Bft)
28/10/2012 14:30 3,8 C 84 % 1013,5 hPa 0,0 mm 7,2 km/h (2 Bft) NE 45 0 min 0 W/m 1,4 C 2,0 C 7,6 km/h (2 Bft)
28/10/2012 14:40 3,8 C 84 % 1013,5 hPa 0,0 mm 7,6 km/h (2 Bft) N-NE 22 0 min 0 W/m 1,4 C 1,8 C 7,6 km/h (2 Bft)
28/10/2012 14:50 3,7 C 84 % 1013,6 hPa 0,0 mm 4,3 km/h (1 Bft) E-NE 67 0 min 0 W/m 1,3 C 3,7 C 4,3 km/h (1 Bft)
28/10/2012 15:00 3,6 C 84 % 1013,6 hPa 0,0 mm 3,6 km/h (1 Bft) N 360 0 min 0 W/m 1,2 C 3,6 C 7,6 km/h (2 Bft)
28/10/2012 15:10 3,5 C 84 % 1013,6 hPa 0,0 mm 4,7 km/h (1 Bft) N-NE 22 0 min 0 W/m 1,1 C 2,5 C 6,5 km/h (2 Bft)
28/10/2012 15:20 3,3 C 84 % 1013,7 hPa 0,0 mm 5,0 km/h (1 Bft) E-NE 67 0 min 0 W/m 0,9 C 2,2 C 6,1 km/h (2 Bft)
28/10/2012 15:30 2,9 C 84 % 1013,7 hPa 0,0 mm 1,8 km/h (1 Bft) N-NO 337 0 min 0 W/m 0,5 C 2,9 C 9,7 km/h (2 Bft)
28/10/2012 15:40 2,7 C 85 % 1013,8 hPa 0,0 mm 9,4 km/h (2 Bft) N 360 0 min 0 W/m 0,4 C 0,1 C 15,8 km/h (3 Bft)
28/10/2012 15:50 2,6 C 85 % 1013,8 hPa 0,0 mm 0,7 km/h (0 Bft) E-NE 67 0 min 0 W/m 0,3 C 2,6 C 4,3 km/h (1 Bft)
28/10/2012 16:00 2,6 C 85 % 1014,0 hPa 0,0 mm 10,1 km/h (2 Bft) N 360 0 min 0 W/m 0,3 C -0,2 C 18,0 km/h (3 Bft)
28/10/2012 16:10 2,6 C 86 % 1014,0 hPa 0,0 mm 6,8 km/h (2 Bft) NE 45 0 min 0 W/m 0,5 C 0,7 C 9,0 km/h (2 Bft)
28/10/2012 16:20 2,5 C 86 % 1014,2 hPa 0,0 mm 7,9 km/h (2 Bft) N-NE 22 0 min 0 W/m 0,4 C 0,2 C 14,4 km/h (3 Bft)
28/10/2012 16:30 2,5 C 86 % 1014,2 hPa 0,0 mm 7,6 km/h (2 Bft) N-NO 337 0 min 0 W/m 0,4 C 0,3 C 11,5 km/h (2 Bft)
28/10/2012 16:40 2,6 C 87 % 1014,2 hPa 0,0 mm 4,7 km/h (1 Bft) N-NE 22 0 min 0 W/m 0,7 C 1,5 C 4,7 km/h (1 Bft)
28/10/2012 16:50 2,6 C 87 % 1014,3 hPa 0,0 mm 3,6 km/h (1 Bft) N-NE 22 0 min 0 W/m 0,7 C 2,6 C 8,3 km/h (2 Bft)
28/10/2012 17:00 2,6 C 87 % 1014,3 hPa 0,0 mm 2,9 km/h (1 Bft) N 360 0 min 0 W/m 0,7 C 2,6 C 9,7 km/h (2 Bft)
28/10/2012 17:10 2,8 C 87 % 1014,2 hPa 0,0 mm 7,2 km/h (2 Bft) N 360 0 min 0 W/m 0,9 C 0,8 C 11,2 km/h (2 Bft)
28/10/2012 17:20 2,8 C 87 % 1014,3 hPa 0,0 mm 9,7 km/h (2 Bft) NE 45 0 min 0 W/m 0,9 C 0,1 C 18,4 km/h (3 Bft)
28/10/2012 17:30 2,8 C 87 % 1014,2 hPa 0,0 mm 0,4 km/h (0 Bft) N 360 0 min 0 W/m 0,9 C 2,8 C 0,4 km/h (0 Bft)
28/10/2012 17:40 2,7 C 87 % 1014,3 hPa 0,0 mm 3,6 km/h (1 Bft) N-NE 22 0 min 0 W/m 0,8 C 2,7 C 6,1 km/h (2 Bft)
28/10/2012 17:50 2,6 C 87 % 1014,4 hPa 0,0 mm 6,1 km/h (2 Bft) N-NE 22 0 min 0 W/m 0,7 C 0,9 C 8,3 km/h (2 Bft)
28/10/2012 18:00 2,6 C 87 % 1014,5 hPa 0,0 mm 2,9 km/h (1 Bft) E 90 0 min 0 W/m 0,7 C 2,6 C 11,5 km/h (2 Bft)
28/10/2012 18:10 2,6 C 87 % 1014,6 hPa 0,0 mm 0,0 km/h (0 Bft) N-NE 22 0 min 0 W/m 0,7 C 2,6 C 0,0 km/h (0 Bft)
28/10/2012 18:20 2,6 C 87 % 1014,6 hPa 0,0 mm 5,0 km/h (1 Bft) NO 315 0 min 0 W/m 0,7 C 1,4 C 6,5 km/h (2 Bft)
28/10/2012 18:30 2,5 C 87 % 1014,6 hPa 0,0 mm 2,9 km/h (1 Bft) NO 315 0 min 0 W/m 0,6 C 2,5 C 4,0 km/h (1 Bft)
28/10/2012 18:40 2,5 C 88 % 1014,7 hPa 0,0 mm 1,1 km/h (1 Bft) N-NE 22 0 min 0 W/m 0,7 C 2,5 C 1,1 km/h (1 Bft)
28/10/2012 18:50 2,5 C 88 % 1014,6 hPa 0,0 mm 4,7 km/h (1 Bft) NE 45 0 min 0 W/m 0,7 C 1,4 C 6,5 km/h (2 Bft)
_ Min-Heure 00:10 04:10 19:00 - 18:10 - - - - 00:10 00:10 18:10
Minimum _ 0,9 C 54 % 999,1 hPa - 0,0 km/h (0 Bft) - - - - -1,3 C -2,6 C 0,0 km/h (0 Bft)
_ Max-Heure 04:40 20:30 18:40 11:50 04:50 - - 18:50 18:50 19:00 04:00 21:40
Maximum _ 9,0 C 93 % 1014,7 hPa 0,1 mm 16,2 km/h
N-NO (3 Bft)
- - 0 min 0 W/m 5,1 C 8,9 C 32,0 km/h
N (5 Bft)
Moyenne _ 5,2 C 77 % 1007,8 hPa #0,3 mm 6,9 km/h (2 Bft) N - #0 min. 0 W/m 1,4 C 4,0 C 11,9 km/h (2 Bft)
Saint Bonnet de Bellac- Haute Vienne - France